Time,TemperatureF,DewpointF,PressureIn,WindDirection,WindDirectionDegrees,WindSpeedMPH,WindSpeedGustMPH,Humidity,HourlyPrecipIn,Conditions,Clouds,dailyrainin,SoftwareType,DateUTC
2013-06-12 00:03:00,77.0,67.0,29.81,WSW,238,2.0,7.0,72,0.00,,,0.00,,2013-06-12 05:03:00,
2013-06-12 00:12:00,77.0,67.0,29.81,WSW,238,2.0,7.0,72,0.00,,,0.00,,2013-06-12 05:12:00,
2013-06-12 00:22:00,76.0,67.0,29.80,SW,224,0.0,6.0,73,0.00,,,0.00,,2013-06-12 05:22:00,
2013-06-12 00:32:00,75.0,67.0,29.80,South,169,0.0,2.0,75,0.00,,,0.00,,2013-06-12 05:32:00,
2013-06-12 00:42:00,75.0,67.0,29.80,South,169,0.0,2.0,75,0.00,,,0.00,,2013-06-12 05:42:00,
2013-06-12 00:52:00,74.0,66.0,29.81,South,169,0.0,0.0,77,0.00,,,0.00,,2013-06-12 05:52:00,
2013-06-12 01:02:00,73.0,66.0,29.81,South,169,0.0,0.0,79,0.00,,,0.00,,2013-06-12 06:02:00,
2013-06-12 01:12:00,73.0,66.0,29.81,South,169,0.0,0.0,79,0.00,,,0.00,,2013-06-12 06:12:00,
2013-06-12 01:22:00,73.0,66.0,29.81,South,169,0.0,0.0,80,0.00,,,0.00,,2013-06-12 06:22:00,
2013-06-12 01:32:00,73.0,66.0,29.81,South,169,0.0,2.0,80,0.00,,,0.00,,2013-06-12 06:32:00,
2013-06-12 01:42:00,73.0,66.0,29.81,South,169,0.0,2.0,80,0.00,,,0.00,,2013-06-12 06:42:00,
2013-06-12 01:52:00,73.0,67.0,29.81,SSW,209,0.0,2.0,81,0.00,,,0.00,,2013-06-12 06:52:00,
2013-06-12 02:02:00,73.0,67.0,29.80,SSW,207,0.0,3.0,81,0.00,,,0.00,,2013-06-12 07:02:00,
2013-06-12 02:12:00,73.0,67.0,29.81,SW,215,0.0,3.0,81,0.00,,,0.00,,2013-06-12 07:12:00,
2013-06-12 02:22:00,73.0,67.0,29.81,SW,215,0.0,3.0,81,0.00,,,0.00,,2013-06-12 07:22:00,
2013-06-12 02:33:00,72.0,67.0,29.81,WSW,244,0.0,2.0,83,0.00,,,0.00,,2013-06-12 07:33:00,
2013-06-12 02:43:00,72.0,67.0,29.81,WSW,243,0.0,2.0,84,0.00,,,0.00,,2013-06-12 07:43:00,
2013-06-12 02:53:00,72.0,67.0,29.81,WSW,243,0.0,2.0,84,0.00,,,0.00,,2013-06-12 07:53:00,
2013-06-12 03:02:00,73.0,68.0,29.81,SW,218,0.0,2.0,83,0.00,,,0.00,,2013-06-12 08:02:00,
2013-06-12 03:12:00,72.0,67.0,29.81,SSW,207,0.0,2.0,83,0.00,,,0.00,,2013-06-12 08:12:00,
2013-06-12 03:22:00,72.0,67.0,29.81,SSW,207,0.0,2.0,83,0.00,,,0.00,,2013-06-12 08:22:00,
2013-06-12 03:33:00,72.0,67.0,29.81,SSW,207,0.0,2.0,84,0.00,,,0.00,,2013-06-12 08:33:00,
2013-06-12 03:43:00,71.0,66.0,29.82,SSW,207,0.0,1.0,84,0.00,,,0.00,,2013-06-12 08:43:00,
2013-06-12 03:53:00,71.0,66.0,29.82,SSW,207,0.0,1.0,84,0.00,,,0.00,,2013-06-12 08:53:00,
2013-06-12 04:01:00,70.0,65.0,29.82,SSW,207,0.0,1.0,85,0.00,,,0.00,,2013-06-12 09:01:00,
2013-06-12 04:11:00,70.0,66.0,29.82,SSW,207,0.0,3.0,87,0.00,,,0.00,,2013-06-12 09:11:00,
2013-06-12 04:22:00,70.0,66.0,29.82,SSW,207,0.0,3.0,87,0.00,,,0.00,,2013-06-12 09:22:00,
2013-06-12 04:33:00,70.0,66.0,29.81,South,189,0.0,3.0,87,0.00,,,0.00,,2013-06-12 09:33:00,
2013-06-12 04:42:00,71.0,67.0,29.81,West,264,1.0,5.0,86,0.00,,,0.00,,2013-06-12 09:42:00,
2013-06-12 04:53:00,71.0,67.0,29.81,West,264,1.0,5.0,86,0.00,,,0.00,,2013-06-12 09:53:00,
2013-06-12 05:02:00,71.0,67.0,29.82,SW,230,0.0,3.0,86,0.00,,,0.00,,2013-06-12 10:02:00,
2013-06-12 05:11:00,71.0,67.0,29.82,SW,234,0.0,4.0,86,0.00,,,0.00,,2013-06-12 10:11:00,
2013-06-12 05:23:00,71.0,67.0,29.82,SW,234,0.0,4.0,86,0.00,,,0.00,,2013-06-12 10:23:00,
2013-06-12 05:33:00,71.0,67.0,29.82,SW,234,0.0,2.0,87,0.00,,,0.00,,2013-06-12 10:33:00,
2013-06-12 05:43:00,70.0,66.0,29.81,SW,216,0.0,3.0,87,0.00,,,0.00,,2013-06-12 10:43:00,
2013-06-12 05:53:00,70.0,66.0,29.81,SW,216,0.0,3.0,87,0.00,,,0.00,,2013-06-12 10:53:00,
2013-06-12 06:02:00,71.0,67.0,29.82,NE,38,2.0,5.0,87,0.00,,,0.00,,2013-06-12 11:02:00,
2013-06-12 06:12:00,70.0,66.0,29.82,NE,38,0.0,0.0,86,0.00,,,0.00,,2013-06-12 11:12:00,
2013-06-12 06:24:00,70.0,66.0,29.82,NE,38,0.0,0.0,86,0.00,,,0.00,,2013-06-12 11:24:00,
2013-06-12 06:33:00,70.0,66.0,29.82,NE,38,0.0,1.0,88,0.00,,,0.00,,2013-06-12 11:33:00,
2013-06-12 06:43:00,71.0,67.0,29.83,WSW,254,0.0,3.0,86,0.00,,,0.00,,2013-06-12 11:43:00,
2013-06-12 06:53:00,71.0,67.0,29.83,WSW,254,0.0,3.0,86,0.00,,,0.00,,2013-06-12 11:53:00,
2013-06-12 07:02:00,72.0,68.0,29.83,SW,232,1.0,4.0,87,0.00,,,0.00,,2013-06-12 12:02:00,
2013-06-12 07:11:00,73.0,68.0,29.84,WSW,252,2.0,6.0,85,0.00,,,0.00,,2013-06-12 12:11:00,
2013-06-12 07:23:00,73.0,68.0,29.84,WSW,252,2.0,6.0,85,0.00,,,0.00,,2013-06-12 12:23:00,
2013-06-12 07:33:00,74.0,68.0,29.84,WSW,257,3.0,8.0,82,0.00,,,0.00,,2013-06-12 12:33:00,
2013-06-12 07:42:00,75.0,69.0,29.84,WSW,252,1.0,5.0,81,0.00,,,0.00,,2013-06-12 12:42:00,
2013-06-12 07:53:00,75.0,69.0,29.84,WSW,252,1.0,5.0,81,0.00,,,0.00,,2013-06-12 12:53:00,
2013-06-12 08:01:00,76.0,69.0,29.84,West,263,2.0,6.0,80,0.00,,,0.00,,2013-06-12 13:01:00,
2013-06-12 08:12:00,76.0,69.0,29.84,WSW,242,1.0,6.0,79,0.00,,,0.00,,2013-06-12 13:12:00,
2013-06-12 08:22:00,76.0,69.0,29.84,WSW,242,1.0,6.0,79,0.00,,,0.00,,2013-06-12 13:22:00,
2013-06-12 08:33:00,77.0,69.0,29.84,WSW,252,0.0,5.0,77,0.00,,,0.00,,2013-06-12 13:33:00,
2013-06-12 08:43:00,78.0,69.0,29.85,WSW,238,3.0,7.0,75,0.00,,,0.00,,2013-06-12 13:43:00,
2013-06-12 08:53:00,78.0,69.0,29.85,WSW,238,3.0,7.0,75,0.00,,,0.00,,2013-06-12 13:53:00,
2013-06-12 09:02:00,78.0,69.0,29.85,WSW,238,3.0,7.0,75,0.00,,,0.00,,2013-06-12 14:02:00,
2013-06-12 09:11:00,80.0,70.0,29.83,SSW,211,3.0,9.0,72,0.00,,,0.00,,2013-06-12 14:11:00,
2013-06-12 09:24:00,80.0,70.0,29.83,SSW,211,3.0,9.0,72,0.00,,,0.00,,2013-06-12 14:24:00,
2013-06-12 09:33:00,80.0,70.0,29.83,SSW,211,3.0,9.0,72,0.00,,,0.00,,2013-06-12 14:33:00,
2013-06-12 09:43:00,81.0,71.0,29.83,SW,236,4.0,14.0,71,0.00,,,0.00,,2013-06-12 14:43:00,
2013-06-12 09:53:00,81.0,71.0,29.83,SW,236,4.0,14.0,71,0.00,,,0.00,,2013-06-12 14:53:00,
2013-06-12 10:01:00,82.0,71.0,29.82,WSW,246,5.0,11.0,70,0.00,,,0.00,,2013-06-12 15:01:00,
2013-06-12 10:12:00,82.0,71.0,29.82,WSW,246,5.0,11.0,70,0.00,,,0.00,,2013-06-12 15:12:00,
2013-06-12 10:23:00,82.0,71.0,29.82,WSW,246,5.0,11.0,70,0.00,,,0.00,,2013-06-12 15:23:00,
2013-06-12 10:33:00,84.0,72.0,29.82,SW,234,3.0,11.0,68,0.00,,,0.00,,2013-06-12 15:33:00,
2013-06-12 10:43:00,84.0,71.0,29.82,West,280,4.0,12.0,66,0.00,,,0.00,,2013-06-12 15:43:00,
2013-06-12 10:52:00,84.0,71.0,29.82,West,280,4.0,12.0,66,0.00,,,0.00,,2013-06-12 15:52:00,
2013-06-12 11:01:00,84.0,71.0,29.80,WSW,258,5.0,9.0,65,0.00,,,0.00,,2013-06-12 16:01:00,
2013-06-12 11:11:00,84.0,70.0,29.79,SW,217,5.0,9.0,64,0.00,,,0.00,,2013-06-12 16:11:00,
2013-06-12 11:22:00,84.0,70.0,29.79,SW,217,5.0,9.0,64,0.00,,,0.00,,2013-06-12 16:22:00,
2013-06-12 11:32:00,85.0,71.0,29.78,SSW,207,3.0,9.0,64,0.00,,,0.00,,2013-06-12 16:32:00,
2013-06-12 11:43:00,86.0,71.0,29.72,South,188,9.0,14.0,61,0.00,,,0.00,,2013-06-12 16:43:00,
2013-06-12 11:52:00,86.0,71.0,29.72,South,188,9.0,14.0,61,0.00,,,0.00,,2013-06-12 16:52:00,
2013-06-12 12:01:00,86.0,71.0,29.72,South,188,9.0,14.0,61,0.00,,,0.00,,2013-06-12 17:01:00,
2013-06-12 12:11:00,84.0,70.0,29.72,SSW,207,9.0,16.0,62,0.00,,,0.00,,2013-06-12 17:11:00,
2013-06-12 12:23:00,84.0,70.0,29.72,SSW,207,9.0,16.0,62,0.00,,,0.00,,2013-06-12 17:23:00,
2013-06-12 12:33:00,85.0,70.0,29.73,SW,220,8.0,14.0,60,0.00,,,0.00,,2013-06-12 17:33:00,
2013-06-12 12:42:00,85.0,70.0,29.73,SW,220,8.0,14.0,60,0.00,,,0.00,,2013-06-12 17:42:00,
2013-06-12 12:52:00,85.0,70.0,29.73,SW,220,8.0,14.0,60,0.00,,,0.00,,2013-06-12 17:52:00,
2013-06-12 13:02:00,88.0,71.0,29.72,South,169,5.0,13.0,58,0.00,,,0.00,,2013-06-12 18:02:00,
2013-06-12 13:12:00,88.0,71.0,29.71,West,268,7.0,12.0,58,0.00,,,0.00,,2013-06-12 18:12:00,
2013-06-12 13:22:00,88.0,71.0,29.71,West,268,7.0,12.0,58,0.00,,,0.00,,2013-06-12 18:22:00,
2013-06-12 13:32:00,89.0,70.0,29.71,SSW,212,8.0,14.0,54,0.00,,,0.00,,2013-06-12 18:32:00,
2013-06-12 13:43:00,89.0,70.0,29.71,SSW,192,6.0,14.0,54,0.00,,,0.00,,2013-06-12 18:43:00,
2013-06-12 13:53:00,89.0,70.0,29.71,SSW,192,6.0,14.0,54,0.00,,,0.00,,2013-06-12 18:53:00,
2013-06-12 14:01:00,90.0,71.0,29.71,West,263,6.0,13.0,53,0.00,,,0.00,,2013-06-12 19:01:00,
2013-06-12 14:11:00,90.0,69.0,29.71,SW,214,8.0,15.0,51,0.00,,,0.00,,2013-06-12 19:11:00,
2013-06-12 14:22:00,90.0,69.0,29.71,SW,214,8.0,15.0,51,0.00,,,0.00,,2013-06-12 19:22:00,
2013-06-12 14:32:00,91.0,71.0,29.70,SSW,209,9.0,17.0,52,0.00,,,0.00,,2013-06-12 19:32:00,
2013-06-12 14:42:00,91.0,71.0,29.69,SSW,202,7.0,14.0,52,0.00,,,0.00,,2013-06-12 19:42:00,
2013-06-12 14:52:00,91.0,71.0,29.69,SSW,202,7.0,14.0,52,0.00,,,0.00,,2013-06-12 19:52:00,
2013-06-12 15:01:00,91.0,70.0,29.69,SW,227,8.0,16.0,50,0.00,,,0.00,,2013-06-12 20:01:00,
2013-06-12 15:11:00,91.0,70.0,29.69,SW,227,8.0,16.0,50,0.00,,,0.00,,2013-06-12 20:11:00,
2013-06-12 15:22:00,91.0,70.0,29.69,SW,227,8.0,16.0,50,0.00,,,0.00,,2013-06-12 20:22:00,
2013-06-12 15:32:00,92.0,69.0,29.68,West,259,8.0,24.0,47,0.00,,,0.00,,2013-06-12 20:32:00,
2013-06-12 15:42:00,92.0,70.0,29.67,SW,227,7.0,14.0,49,0.00,,,0.00,,2013-06-12 20:42:00,
2013-06-12 15:54:00,92.0,70.0,29.67,SW,227,7.0,14.0,49,0.00,,,0.00,,2013-06-12 20:54:00,
2013-06-12 16:01:00,93.0,68.0,29.67,WSW,250,8.0,17.0,44,0.00,,,0.00,,2013-06-12 21:01:00,
2013-06-12 16:11:00,93.0,66.0,29.66,SSW,195,8.0,18.0,42,0.00,,,0.00,,2013-06-12 21:11:00,
2013-06-12 16:22:00,93.0,66.0,29.66,SSW,195,8.0,18.0,42,0.00,,,0.00,,2013-06-12 21:22:00,
2013-06-12 16:33:00,93.0,65.0,29.65,SW,222,8.0,21.0,40,0.00,,,0.00,,2013-06-12 21:33:00,
2013-06-12 16:43:00,94.0,69.0,29.64,SW,227,8.0,16.0,44,0.00,,,0.00,,2013-06-12 21:43:00,
2013-06-12 16:52:00,94.0,69.0,29.64,SW,227,8.0,16.0,44,0.00,,,0.00,,2013-06-12 21:52:00,
2013-06-12 17:01:00,94.0,69.0,29.64,SW,227,8.0,16.0,44,0.00,,,0.00,,2013-06-12 22:01:00,
2013-06-12 17:11:00,92.0,69.0,29.62,SW,227,7.0,17.0,48,0.00,,,0.00,,2013-06-12 22:11:00,
2013-06-12 17:22:00,92.0,69.0,29.62,SW,227,7.0,17.0,48,0.00,,,0.00,,2013-06-12 22:22:00,
2013-06-12 17:32:00,92.0,69.0,29.62,SW,227,7.0,17.0,48,0.00,,,0.00,,2013-06-12 22:32:00,
2013-06-12 17:43:00,92.0,71.0,29.59,SSW,203,10.0,24.0,50,0.00,,,0.00,,2013-06-12 22:43:00,
2013-06-12 17:52:00,92.0,71.0,29.59,SSW,203,10.0,24.0,50,0.00,,,0.00,,2013-06-12 22:52:00,
2013-06-12 18:02:00,91.0,70.0,29.58,South,174,10.0,29.0,51,0.00,,,0.00,,2013-06-12 23:02:00,
2013-06-12 18:12:00,90.0,70.0,29.59,SW,234,8.0,22.0,52,0.00,,,0.00,,2013-06-12 23:12:00,
2013-06-12 18:22:00,90.0,70.0,29.59,SW,234,8.0,22.0,52,0.00,,,0.00,,2013-06-12 23:22:00,
2013-06-12 18:32:00,90.0,70.0,29.59,SW,234,8.0,22.0,52,0.00,,,0.00,,2013-06-12 23:32:00,
2013-06-12 18:42:00,91.0,70.0,29.57,SSW,210,11.0,22.0,51,0.00,,,0.00,,2013-06-12 23:42:00,
2013-06-12 18:52:00,91.0,70.0,29.57,SSW,210,11.0,22.0,51,0.00,,,0.00,,2013-06-12 23:52:00,
2013-06-12 19:01:00,91.0,70.0,29.57,SSW,210,11.0,22.0,51,0.00,,,0.00,,2013-06-13 00:01:00,
2013-06-12 19:12:00,89.0,71.0,29.55,WSW,244,11.0,20.0,55,0.00,,,0.00,,2013-06-13 00:12:00,
2013-06-12 19:22:00,89.0,71.0,29.55,WSW,244,11.0,20.0,55,0.00,,,0.00,,2013-06-13 00:22:00,
2013-06-12 19:32:00,89.0,71.0,29.54,SSW,207,11.0,22.0,55,0.00,,,0.00,,2013-06-13 00:32:00,
2013-06-12 19:42:00,89.0,70.0,29.54,SW,234,11.0,19.0,54,0.00,,,0.00,,2013-06-13 00:42:00,
2013-06-12 19:52:00,89.0,70.0,29.54,SW,234,11.0,19.0,54,0.00,,,0.00,,2013-06-13 00:52:00,
2013-06-12 20:01:00,89.0,70.0,29.55,WSW,252,10.0,24.0,53,0.00,,,0.00,,2013-06-13 01:01:00,
2013-06-12 20:12:00,89.0,70.0,29.55,WSW,257,7.0,20.0,53,0.00,,,0.00,,2013-06-13 01:12:00,
2013-06-12 20:22:00,89.0,70.0,29.55,WSW,257,7.0,20.0,53,0.00,,,0.00,,2013-06-13 01:22:00,
2013-06-12 20:32:00,88.0,69.0,29.55,WNW,290,8.0,20.0,54,0.00,,,0.00,,2013-06-13 01:32:00,
2013-06-12 20:43:00,87.0,69.0,29.56,WSW,257,7.0,22.0,55,0.00,,,0.00,,2013-06-13 01:43:00,
2013-06-12 20:53:00,87.0,69.0,29.56,WSW,257,7.0,22.0,55,0.00,,,0.00,,2013-06-13 01:53:00,
2013-06-12 21:02:00,87.0,70.0,29.57,WSW,254,5.0,21.0,57,0.00,,,0.00,,2013-06-13 02:02:00,
2013-06-12 21:12:00,87.0,70.0,29.57,WSW,254,5.0,21.0,57,0.00,,,0.00,,2013-06-13 02:12:00,
2013-06-12 21:22:00,87.0,70.0,29.57,WSW,254,5.0,21.0,57,0.00,,,0.00,,2013-06-13 02:22:00,
2013-06-12 21:33:00,86.0,70.0,29.58,WSW,252,6.0,12.0,59,0.00,,,0.00,,2013-06-13 02:33:00,
2013-06-12 21:43:00,85.0,70.0,29.58,SW,231,6.0,12.0,61,0.00,,,0.00,,2013-06-13 02:43:00,
2013-06-12 21:52:00,85.0,70.0,29.58,SW,231,6.0,12.0,61,0.00,,,0.00,,2013-06-13 02:52:00,
2013-06-12 22:02:00,85.0,70.0,29.58,SW,232,6.0,13.0,62,0.00,,,0.00,,2013-06-13 03:02:00,
2013-06-12 22:12:00,84.0,70.0,29.58,WNW,290,5.0,15.0,63,0.00,,,0.00,,2013-06-13 03:12:00,
2013-06-12 22:22:00,84.0,70.0,29.58,WNW,290,5.0,15.0,63,0.00,,,0.00,,2013-06-13 03:22:00,
2013-06-12 22:33:00,84.0,70.0,29.59,WSW,252,3.0,10.0,64,0.00,,,0.00,,2013-06-13 03:33:00,
2013-06-12 22:42:00,83.0,70.0,29.59,WNW,301,4.0,11.0,65,0.00,,,0.00,,2013-06-13 03:42:00,
2013-06-12 22:52:00,83.0,70.0,29.59,WNW,301,4.0,11.0,65,0.00,,,0.00,,2013-06-13 03:52:00,
2013-06-12 23:01:00,83.0,70.0,29.58,WSW,240,4.0,8.0,66,0.00,,,0.00,,2013-06-13 04:01:00,
2013-06-12 23:11:00,82.0,69.0,29.58,WNW,296,4.0,10.0,66,0.00,,,0.00,,2013-06-13 04:11:00,
2013-06-12 23:22:00,82.0,69.0,29.58,WNW,296,4.0,10.0,66,0.00,,,0.00,,2013-06-13 04:22:00,
2013-06-12 23:32:00,82.0,69.0,29.58,WNW,296,4.0,10.0,66,0.00,,,0.00,,2013-06-13 04:32:00,
2013-06-12 23:43:00,82.0,69.0,29.58,WNW,296,4.0,10.0,66,0.00,,,0.00,,2013-06-13 04:43:00,
2013-06-12 23:53:00,82.0,69.0,29.58,WNW,296,4.0,10.0,66,0.00,,,0.00,,2013-06-13 04:53:00,